Grandview, WA

5:32 AM PDT on October 21, 2014 (GMT -0700)
Hillcrest | Change Station
CLOSE
Current Station
Personal Weather Station
Location: Grandview, WA
Elevation: 831 ft
Nearby Weather Stations

Elev 831 ft 46.25 °N, 119.92 °W | Updated 12 minutes ago

Mostly Cloudy
Mostly Cloudy
48.7 °F
Feels Like 49 °F
N
2.0
Wind Variable Wind from WSW
Gusts 3.0 mph

Today
High -- | Low -- °F
--% Chance of Precip.
Yesterday
High -- | Low -- °F
Precip. -- in
7:25 AM 6:02 PM
Waning Crescent, 6% visible
Pressure 29.88 in
Visibility 0.8 miles
Clouds
Windchill 49 °F
Dew Point 44 °F
Humidity 85%
Rainfall 0.00 in
Snow Depth Not available.
UV Not available.
Pollen 1.40 out of 12
Air Quality Not available.
Flu Activity Sporadic
SPECI KYKM 211224Z AUTO 15003KT 3/4SM R27/3500VP6000FT BR VV002 04/03 A2988 RMK AO2 T00390033

More Conditions Fewer Conditions

Pressure 29.88 in
Visibility 0.8 miles
Clouds
Windchill 49 °F
Dew Point 44 °F
Humidity 85%
Rainfall 0.00 in
Snow Depth Not available.
UV Not available.
Pollen 1.40 out of 12
Air Quality Not available.
Flu Activity Sporadic
SPECI KYKM 211224Z AUTO 15003KT 3/4SM R27/3500VP6000FT BR VV002 04/03 A2988 RMK AO2 T00390033

More Conditions Fewer Conditions

10-Day Weather Forecast

Almanac

Astronomy

Oct. 21, 2014 Rise Set
Actual Time 7:25 AM PDT 6:02 PM PDT
Civil Twilight 6:54 AM PDT 6:33 PM PDT
Nautical Twilight 6:19 AM PDT 7:07 PM PDT
Astronomical Twilight 5:44 AM PDT 7:42 PM PDT
Moon 5:07 AM PDT 5:04 PM PDT
Length of Visible Light 11h 38m
Length of Day
10h 37m
Tomorrow will be 3m 6s shorter.
Waning Crescent, 6% of the Moon is Illuminated
Today
Waning Crescent
Oct 23
New
Oct 30
First Quarter
Nov 6
Full
Nov 14
Last Quarter

Today's Extremes

State Highs State Lows

Community

WunderPhotos

Upload Photos

1,763,647 photos uploaded!

Nearby

Snow Depth

Station Depth Elevation
Lost Horse 0 in 5000 ft
Green Lake 0 in 6000 ft
Trough 1 in 5300 ft
Grouse Camp 0 in 5380 ft
Potato Hill 0 in 4500 ft

Earthquake Activity

City Distance Mag. Time & Date
No recent earthquake activity has been reported nearby.
Minimum magnitude displayed is 2.5.

Coastal Water Temperatures

Place Temperature
No Stations Reporting

Nearby Weather Stations